PST,Max TemperatureF,Mean TemperatureF,Min TemperatureF,Max Dew PointF,MeanDew PointF,Min DewpointF,Max Humidity, Mean Humidity, Min Humidity, Max Sea Level PressureIn, Mean Sea Level PressureIn, Min Sea Level PressureIn, Max VisibilityMiles, Mean VisibilityMiles, Min VisibilityMiles, Max Wind SpeedMPH, Mean Wind SpeedMPH, Max Gust SpeedMPH,PrecipitationIn, CloudCover, Events, WindDirDegrees
2011-12-1,39,32,24,39,31,25,100,98,93,30.80,30.68,30.45,10,3,0,7,1,,0.00,4,Fog,180
2011-12-2,44,35,26,44,33,27,100,96,70,30.54,30.50,30.45,10,4,0,9,1,,0.00,3,Fog,66
2011-12-3,41,34,26,40,32,26,100,99,93,30.55,30.53,30.50,10,3,0,6,1,,0.00,6,Fog-Rain,187
2011-12-4,45,34,24,37,32,25,100,95,63,30.60,30.56,30.53,10,4,1,12,1,,0.00,5,,101
2011-12-5,40,32,23,34,28,23,100,96,79,30.59,30.51,30.45,10,7,1,7,2,,0.00,4,,181
2011-12-6,37,30,24,36,30,23,100,98,93,30.50,30.47,30.45,10,8,2,6,0,,0.00,7,,180
2011-12-7,41,36,32,38,35,32,100,97,84,30.49,30.47,30.44,10,6,2,6,2,,0.00,8,,176
2011-12-8,39,34,29,34,32,28,100,92,78,30.46,30.43,30.39,10,8,1,10,1,,0.00,6,,44
2011-12-9,37,30,24,34,27,23,100,98,86,30.39,30.34,30.17,10,2,0,5,0,,0.00,3,Fog,150
2011-12-10,37,29,21,36,33,21,100,98,93,30.18,30.15,30.13,10,4,1,5,1,,0.01,7,Rain,155
2011-12-11,41,37,33,39,35,34,100,96,81,30.24,30.14,30.12,10,4,0,8,0,,0.01,8,Fog-Rain,54
2011-12-12,40,31,22,36,27,22,100,97,63,30.28,30.23,30.11,10,3,0,8,0,,0.00,1,Fog,99
2011-12-13,36,28,19,34,27,18,100,99,90,30.15,30.08,30.05,10,6,0,4,0,,0.00,6,Fog,180
2011-12-14,38,32,27,35,32,27,99,91,79,30.19,30.14,30.08,10,10,8,7,1,,0.00,6,Rain,135
2011-12-15,43,39,35,43,40,35,100,99,93,30.50,30.35,30.12,10,5,2,5,1,,0.05,8,Rain,131
2011-12-16,51,40,28,44,37,28,100,98,75,30.50,30.45,30.41,10,3,0,7,1,,0.00,3,Fog,149
2011-12-17,50,38,26,46,29,27,100,99,71,30.41,30.29,30.06,10,2,0,9,0,,0.00,1,Fog,148
2011-12-18,46,39,32,45,39,32,100,98,84,30.46,30.31,30.09,10,4,0,9,3,,0.07,5,Fog-Rain,220
2011-12-19,44,38,32,45,37,32,100,99,93,30.49,30.46,30.41,10,3,0,7,1,,0.00,6,Fog,138
2011-12-20,44,38,32,44,38,32,100,99,93,30.40,30.34,30.30,10,6,1,7,3,,0.00,4,,187
2011-12-21,40,32,24,41,29,25,100,99,93,30.56,30.48,30.37,10,1,0,7,1,,0.00,1,Fog,166
2011-12-22,32,28,25,32,29,25,100,99,93,30.55,30.44,30.35,10,1,0,5,0,,0.00,1,Fog,165
2011-12-23,52,39,26,44,37,26,100,96,73,30.57,30.51,30.41,10,10,8,7,2,,0.00,8,,182
2011-12-24,53,44,35,45,39,36,100,97,66,30.51,30.34,30.20,10,4,0,6,1,,0.01,3,Fog-Rain,127
2011-12-25,48,42,36,44,41,35,100,93,60,30.39,30.16,30.01,10,9,4,32,12,45,0.13,6,Rain,195
2011-12-26,41,38,35,39,38,35,100,97,86,30.38,30.28,30.17,10,10,10,8,5,,0.07,4,Rain,176
2011-12-27,51,44,38,50,46,38,100,98,91,30.16,30.00,29.74,10,10,5,25,6,34,0.61,7,Rain,177
2011-12-28,53,50,48,54,51,45,100,98,87,29.91,29.78,29.62,10,9,4,23,16,33,0.72,7,Rain,198
2011-12-29,50,46,42,50,44,41,100,95,87,30.11,29.95,29.58,10,9,2,16,11,23,0.42,7,Rain,194
2011-12-30,50,43,35,50,42,32,100,90,71,30.26,29.76,29.62,10,8,2,22,12,30,0.37,5,Rain,214
2011-12-31,42,36,29,34,32,29,98,85,64,30.43,30.35,30.27,10,10,10,16,6,,0.00,4,Rain,58